PWSweather.com
Personal Weather Stations
Station Observations
REUBENS
Camas Prairie, Reubens, ID

Camas PrairieReubens, ID

Lat: 46.35417, Lon: -116.53167

Elevation: 3480

Station Type: Davis VantagePro 2

http://www.theobrienranch.com/wx/wx.htm

Latest ConditionsUpdated 3:30:00 PM PST Thursday, Dec 18, 2014
Currently Today's Max Today's Min Today's Average
Temperature 40.4°F4.7°C 41.0°F5.0°C 33.8°F1.0°C 36.4°F2.4°C
Dew Point 34.4°F1.3°C 36.3°F2.4°C 31.0°F-0.6°C 33.3°F0.7°C
Winds 4.7 mph SSW7.6 kmh SSW 11.6 mph SSW18.7 kmh SSW - 2.9 mph 4.7 kmh
Wind Gusts 5.0 mph8.0 kmh 13.0 mph20.9 kmh - -
Humidity 79% 94% 79% 89%
Pressure 30.03 in1016.9 mb 30.08 in1018.6 mb 30.02 in1016.6 mb -
Precipitation - 0.04 in1.0 mm - -
Hour Temp Dew Point Humidity Winds Wind Gusts Pressure Precip Precip Rate Daily Precip Total
03:30 PM 40.4°F4.7°C 34.4°F1.3°C 79% 4.7 mph SSW7.6 kmh SSW 5.0 mph8.0 kmh 30.03 in1016.9 mb 0.00 in0.0 mm 0.00 in/hr0.0 mm/hr 0.04 in1.0 mm
03:00 PM 40.6°F4.8°C 34.6°F1.4°C 79% 3.5 mph SSW5.6 kmh SSW 4.0 mph6.4 kmh 30.02 in1016.6 mb 0.00 in0.0 mm 0.00 in/hr0.0 mm/hr 0.04 in1.0 mm
02:30 PM 40.8°F4.9°C 34.8°F1.6°C 79% 5.9 mph SSW9.5 kmh SSW 7.0 mph11.3 kmh 30.03 in1016.9 mb 0.00 in0.0 mm 0.00 in/hr0.0 mm/hr 0.04 in1.0 mm
02:00 PM 40.8°F4.9°C 34.8°F1.6°C 79% 6.0 mph S9.7 kmh S 7.0 mph11.3 kmh 30.03 in1016.9 mb 0.00 in0.0 mm 0.00 in/hr0.0 mm/hr 0.04 in1.0 mm
01:30 PM 40.4°F4.7°C 35.6°F2.0°C 83% 6.5 mph SW10.5 kmh SW 9.0 mph14.5 kmh 30.03 in1016.9 mb 0.00 in0.0 mm 0.00 in/hr0.0 mm/hr 0.04 in1.0 mm
01:00 PM 41.0°F5.0°C 35.0°F1.7°C 79% 11.6 mph SSW18.7 kmh SSW 13.0 mph20.9 kmh 30.03 in1016.9 mb 0.00 in0.0 mm 0.00 in/hr0.0 mm/hr 0.04 in1.0 mm
12:30 PM 39.3°F4.1°C 36.3°F2.4°C 89% 4.7 mph ESE7.6 kmh ESE 6.0 mph9.7 kmh 30.04 in1017.3 mb 0.00 in0.0 mm 0.00 in/hr0.0 mm/hr 0.04 in1.0 mm
12:00 PM 38.8°F3.8°C 35.6°F2.0°C 88% 6.4 mph SE10.3 kmh SE 7.0 mph11.3 kmh 30.04 in1017.3 mb 0.00 in0.0 mm 0.00 in/hr0.0 mm/hr 0.04 in1.0 mm
11:30 AM 37.2°F2.9°C 34.8°F1.6°C 91% 4.8 mph SE7.7 kmh SE 5.0 mph8.0 kmh 30.06 in1017.9 mb 0.00 in0.0 mm 0.00 in/hr0.0 mm/hr 0.04 in1.0 mm
11:00 AM 37.3°F2.9°C 34.9°F1.6°C 91% 4.9 mph S7.9 kmh S 6.0 mph9.7 kmh 30.07 in1018.3 mb 0.00 in0.0 mm 0.00 in/hr0.0 mm/hr 0.04 in1.0 mm
10:30 AM 38.2°F3.4°C 35.0°F1.7°C 88% 3.1 mph S5.0 kmh S 5.0 mph8.0 kmh 30.07 in1018.3 mb 0.00 in0.0 mm 0.00 in/hr0.0 mm/hr 0.04 in1.0 mm
10:00 AM 37.7°F3.2°C 34.2°F1.2°C 87% 2.6 mph S4.2 kmh S 3.0 mph4.8 kmh 30.08 in1018.6 mb 0.00 in0.0 mm 0.00 in/hr0.0 mm/hr 0.04 in1.0 mm
09:30 AM 36.7°F2.6°C 33.7°F0.9°C 89% 2.9 mph S4.7 kmh S 3.0 mph4.8 kmh 30.08 in1018.6 mb 0.00 in0.0 mm 0.00 in/hr0.0 mm/hr 0.04 in1.0 mm
09:00 AM 34.7°F1.5°C 32.6°F0.3°C 92% Calm Calm -- 30.07 in1018.3 mb 0.00 in0.0 mm 0.00 in/hr0.0 mm/hr 0.04 in1.0 mm
08:30 AM 34.1°F1.2°C 32.3°F0.2°C 93% 2.4 mph S3.9 kmh S 3.0 mph4.8 kmh 30.07 in1018.3 mb 0.00 in0.0 mm 0.00 in/hr0.0 mm/hr 0.04 in1.0 mm
08:00 AM 34.4°F1.3°C 32.3°F0.2°C 92% 3.0 mph S4.8 kmh S 3.0 mph4.8 kmh 30.06 in1017.9 mb 0.00 in0.0 mm 0.00 in/hr0.0 mm/hr 0.04 in1.0 mm
07:30 AM 34.1°F1.2°C 32.2°F0.1°C 93% 2.0 mph S3.2 kmh S 3.0 mph4.8 kmh 30.06 in1017.9 mb 0.00 in0.0 mm 0.00 in/hr0.0 mm/hr 0.04 in1.0 mm
07:00 AM 34.2°F1.2°C 32.4°F0.2°C 93% 4.9 mph S7.9 kmh S 5.0 mph8.0 kmh 30.06 in1017.9 mb 0.00 in0.0 mm 0.00 in/hr0.0 mm/hr 0.04 in1.0 mm
06:30 AM 33.9°F1.1°C 32.1°F0.1°C 93% 4.4 mph S7.1 kmh S 5.0 mph8.0 kmh 30.07 in1018.3 mb 0.01 in0.3 mm 0.02 in/hr0.5 mm/hr 0.04 in1.0 mm
06:00 AM 34.1°F1.2°C 32.3°F0.2°C 93% 1.5 mph S2.4 kmh S 2.0 mph3.2 kmh 30.07 in1018.3 mb 0.00 in0.0 mm 0.00 in/hr0.0 mm/hr 0.03 in0.8 mm
05:30 AM 33.9°F1.1°C 32.3°F0.2°C 94% 1.3 mph S2.1 kmh S 2.0 mph3.2 kmh 30.06 in1017.9 mb 0.00 in0.0 mm 0.00 in/hr0.0 mm/hr 0.03 in0.8 mm
05:00 AM 34.0°F1.1°C 32.2°F0.1°C 93% 1.2 mph S1.9 kmh S 2.0 mph3.2 kmh 30.06 in1017.9 mb 0.00 in0.0 mm 0.00 in/hr0.0 mm/hr 0.03 in0.8 mm
04:30 AM 34.4°F1.3°C 32.0°F0.0°C 91% 1.5 mph S2.4 kmh S 2.0 mph3.2 kmh 30.06 in1017.9 mb 0.00 in0.0 mm 0.00 in/hr0.0 mm/hr 0.03 in0.8 mm
04:00 AM 34.8°F1.6°C 32.7°F0.4°C 92% 2.5 mph S4.0 kmh S 3.0 mph4.8 kmh 30.05 in1017.6 mb 0.01 in0.3 mm 0.02 in/hr0.5 mm/hr 0.03 in0.8 mm
03:30 AM 33.8°F1.0°C 32.0°F0.0°C 93% Calm Calm 1.0 mph1.6 kmh 30.05 in1017.6 mb 0.00 in0.0 mm 0.00 in/hr0.0 mm/hr 0.02 in0.5 mm
03:00 AM 34.1°F1.2°C 32.0°F0.0°C 92% Calm Calm -- 30.05 in1017.6 mb 0.00 in0.0 mm 0.00 in/hr0.0 mm/hr 0.02 in0.5 mm
02:30 AM 34.7°F1.5°C 32.3°F0.2°C 91% Calm Calm -- 30.04 in1017.3 mb 0.00 in0.0 mm 0.00 in/hr0.0 mm/hr 0.02 in0.5 mm
02:00 AM 34.4°F1.3°C 32.1°F0.1°C 91% Calm Calm -- 30.05 in1017.6 mb 0.00 in0.0 mm 0.00 in/hr0.0 mm/hr 0.02 in0.5 mm
01:30 AM 35.7°F2.1°C 32.5°F0.3°C 88% Calm Calm -- 30.03 in1016.9 mb 0.01 in0.3 mm 0.02 in/hr0.5 mm/hr 0.02 in0.5 mm
01:00 AM 35.6°F2.0°C 32.1°F0.1°C 87% Calm Calm -- 30.02 in1016.6 mb 0.01 in0.3 mm 0.02 in/hr0.5 mm/hr 0.01 in0.3 mm
12:30 AM 34.8°F1.6°C 31.0°F-0.6°C 86% 1.1 mph SSE1.8 kmh SSE 2.0 mph3.2 kmh 30.04 in1017.3 mb 0.00 in0.0 mm 0.00 in/hr0.0 mm/hr 0.00 in0.0 mm
12:00 AM 35.1°F1.7°C 31.0°F-0.6°C 85% Calm Calm -- 30.03 in1016.9 mb 0.00 in0.0 mm 0.00 in/hr0.0 mm/hr 0.00 in0.0 mm